Terminal Aerodrome Forecast
Issued by NWS St Louis, MO

Home | Current Version | Previous Version | Text Only | Print | Product List | Glossary On
Versions: 1 2 3 4 5 6 7 8 9 10 11 12 13 14 15 16 17 18 19 20 21 22 23 24
000
FTUS43 KLSX 021600 AAC
TAFCOU
TAF AMD
KCOU 021617Z 0216/0312 14008KT 6SM BR VCSH SCT010 OVC080
      TEMPO 0216/0218 -SHRA OVC010
     FM021800 15010KT 6SM -SHRA BR VCTS OVC025CB
     FM030000 25007KT 5SM BR BKN015
     FM030500 32010G20KT 5SM BR VCSH OVC007=

USA.gov is the U.S. government's official web portal to all federal, state and local government web resources and services.